East Midlands Airport (EMA/EGNX)




Flight Aircraft Arriving
CPX941 B738
EHAM - Schiphol International Airport
Netherlands Amsterdam, Netherlands
CPX1130 B738
EBLG - Liège Airport
Belgium Liege, Belgium
Flight Aircraft Departing
CPX940 B738
EHAM - Schiphol International Airport
Netherlands Amsterdam, Netherlands
CPX1129 B738
EBLG - Liège Airport
Belgium Liege, Belgium
Airport Information
Location: Derby, GB
Coordinates: 52.8311 / -1.32778
Elevation:
Time Offset:
Local Time:
UTC Time:
Jet A Price: $/lbs

Current Weather
METAR:
Warning: file_get_contents(https://api.aviationapi.com/v1/weather/metar?apt=EGNX): failed to open stream: HTTP request failed! HTTP/1.1 500 Internal Server Error in /var/www/capitollogistics/lib/skins/urban/hub/aptview.php on line 198
TAF: TAF EGNX 281702Z 2818/2918 20014KT 9999 SCT007 BKN020 TEMPO 2818/2908 22017G27KT 6000 RA BKN006 PROB30 TEMPO 2903/2908 19025G40KT 3000 +RA BECMG 2905/2908 26017G28KT TEMPO 2908/2918 6000 SHRA BKN011 BECMG 2911/2914 22023G33KT PROB30 TEMPO 2912/2915 4000 SHRASN BKN008

Recent Arrivals
Date Flight Type Depart
01/18/2020 CPX1129 B738 Liège Airport (EBLG)
10/22/2019 CPX729 B738 Liège Airport (EBLG)
10/18/2019 CPX729 B738 Liège Airport (EBLG)
10/04/2019 CPX729 B738 Liège Airport (EBLG)
Recent Departures
Date Flight Type Arrive
02/16/2020 CPX1130 B738 Liège Airport (EBLG)
10/22/2019 CPX941 B738 Schiphol International Airport (EHAM)
10/19/2019 CPX941 B738 Schiphol International Airport (EHAM)